Time;durP1;ratioP1;P1;durP2;ratioP2;P2;SDS_P1;SDS_P2;PMS_P1;PMS_P2;Temp;Humidity;BMP_temperature;BMP_pressure;BME280_temperature;BME280_humidity;BME280_pressure;Samples;Min_cycle;Max_cycle;Signal;HPM_P1;HPM_P2
2021/01/11 00:02:17;;;;;;;21.73;13.22;;;;;;;-4.00;73.63;97008.45;1796122;79;21398;-78
2021/01/11 00:04:43;;;;;;;21.37;13.28;;;;;;;-3.95;73.62;97014.11;1803189;78;21105;-78
2021/01/11 00:07:11;;;;;;;17.77;12.73;;;;;;;-3.94;73.56;97019.11;1800302;79;21230;-78
2021/01/11 00:09:37;;;;;;;19.52;13.08;;;;;;;-3.90;73.61;97017.70;1797094;78;21140;-77
2021/01/11 00:12:05;;;;;;;17.40;12.13;;;;;;;-3.87;73.46;97022.17;1797101;78;21539;-78
2021/01/11 00:14:32;;;;;;;19.90;12.73;;;;;;;-3.89;73.30;97020.62;1798809;79;21101;-78
2021/01/11 00:16:58;;;;;;;17.02;11.18;;;;;;;-3.92;73.37;97016.04;1789066;79;21164;-78
2021/01/11 00:19:24;;;;;;;17.37;12.58;;;;;;;-3.91;73.41;97018.13;1820111;78;21532;-78
2021/01/11 00:21:50;;;;;;;19.35;11.97;;;;;;;-3.94;73.32;97014.03;1787970;79;21124;-77
2021/01/11 00:24:17;;;;;;;18.30;12.68;;;;;;;-3.99;73.37;97010.91;1799101;78;21242;-78
2021/01/11 00:26:55;;;;;;;19.30;12.68;;;;;;;-4.02;73.49;97007.27;1813626;78;21104;-77
2021/01/11 00:29:22;;;;;;;18.12;10.98;;;;;;;-4.06;73.56;97010.86;1790112;78;21061;-77
2021/01/11 00:31:48;;;;;;;17.32;11.05;;;;;;;-4.07;73.62;97008.38;1797471;79;21230;-77
2021/01/11 00:34:15;;;;;;;14.43;10.25;;;;;;;-4.11;73.61;96996.29;1800312;78;21284;-78
2021/01/11 00:36:42;;;;;;;21.00;12.50;;;;;;;-4.13;73.64;96998.09;1793724;78;21152;-77
2021/01/11 00:39:08;;;;;;;20.45;11.78;;;;;;;-4.16;73.78;96996.16;1747672;79;21116;-77
2021/01/11 00:41:34;;;;;;;17.40;12.93;;;;;;;-4.18;73.87;96990.34;1810610;78;21215;-77
2021/01/11 00:44:00;;;;;;;18.27;12.35;;;;;;;-4.18;73.83;96990.34;1808664;78;21146;-77
2021/01/11 00:46:28;;;;;;;19.45;12.93;;;;;;;-4.19;73.91;96991.23;1793121;79;21088;-77
2021/01/11 00:48:54;;;;;;;18.82;12.10;;;;;;;-4.16;73.98;96989.81;1806736;78;21103;-77
2021/01/11 00:51:21;;;;;;;20.52;12.80;;;;;;;-4.15;74.01;96997.80;1785917;79;21073;-77
2021/01/11 00:53:47;;;;;;;18.62;12.78;;;;;;;-4.12;73.96;96995.10;1802327;79;21117;-77
2021/01/11 00:56:18;;;;;;;21.23;12.07;;;;;;;-4.06;74.04;96993.55;1802109;79;21216;-77
2021/01/11 00:58:44;;;;;;;18.70;11.80;;;;;;;-4.04;73.97;96988.76;1787531;79;21106;-77
2021/01/11 01:01:10;;;;;;;19.70;11.83;;;;;;;-4.02;73.94;97000.09;1774394;79;21075;-78
2021/01/11 01:03:38;;;;;;;22.42;13.13;;;;;;;-4.04;73.83;96995.10;1800241;79;22075;-77
2021/01/11 01:06:05;;;;;;;17.95;12.05;;;;;;;-4.07;73.82;96995.27;1805535;79;21094;-77
2021/01/11 01:08:32;;;;;;;17.67;11.50;;;;;;;-4.09;73.82;96995.76;1808402;78;21086;-77
2021/01/11 01:10:58;;;;;;;19.67;11.95;;;;;;;-4.11;73.95;96990.39;1805815;79;21063;-77
2021/01/11 01:13:24;;;;;;;20.08;13.03;;;;;;;-4.14;73.90;96986.30;1805229;79;21293;-77
2021/01/11 01:15:51;;;;;;;14.50;10.38;;;;;;;-4.14;73.89;96990.10;1805680;78;21204;-77
2021/01/11 01:18:17;;;;;;;15.95;10.25;;;;;;;-4.13;73.90;96985.40;1801206;79;21066;-77
2021/01/11 01:20:43;;;;;;;16.45;10.13;;;;;;;-4.14;73.84;96985.03;1800039;78;21098;-77
2021/01/11 01:23:09;;;;;;;17.05;11.03;;;;;;;-4.15;73.86;96978.31;1805273;79;21078;-77
2021/01/11 01:25:35;;;;;;;18.12;11.10;;;;;;;-4.17;73.75;96976.75;1801761;78;22025;-77
2021/01/11 01:28:02;;;;;;;18.70;10.48;;;;;;;-4.21;73.79;96974.83;1803691;78;21098;-77
2021/01/11 01:30:28;;;;;;;20.70;13.15;;;;;;;-4.20;73.87;96971.84;1804495;79;21102;-77
2021/01/11 01:32:56;;;;;;;20.08;11.85;;;;;;;-4.24;73.80;96976.22;1808249;78;21133;-77
2021/01/11 01:35:23;;;;;;;18.82;12.28;;;;;;;-4.24;73.83;96978.77;1798853;79;21095;-77
2021/01/11 01:37:49;;;;;;;16.20;10.80;;;;;;;-4.26;73.87;96976.30;1808237;79;21137;-77
2021/01/11 01:40:15;;;;;;;17.00;10.55;;;;;;;-4.28;73.88;96974.74;1804734;79;21328;-77
2021/01/11 01:42:41;;;;;;;16.32;11.55;;;;;;;-4.29;73.87;96974.38;1811447;79;21435;-77
2021/01/11 01:45:08;;;;;;;14.85;11.55;;;;;;;-4.30;73.90;96967.21;1801702;79;21129;-77
2021/01/11 01:47:34;;;;;;;17.23;11.85;;;;;;;-4.30;73.97;96962.59;1803383;79;21133;-77
2021/01/11 01:50:08;;;;;;;20.05;11.90;;;;;;;-4.28;74.04;96964.59;1804614;79;21106;-77
2021/01/11 01:52:37;;;;;;;17.65;12.07;;;;;;;-4.29;74.02;96959.97;1804988;79;21085;-77
2021/01/11 01:55:08;;;;;;;18.95;12.28;;;;;;;;;;1804238;79;21534;-76
2021/01/11 01:57:34;;;;;;;16.85;12.30;;;;;;;-4.28;74.03;96958.25;1781856;79;21357;-77
2021/01/11 02:00:00;;;;;;;18.60;11.18;;;;;;;;;;1804899;79;21102;-77
2021/01/11 02:02:26;;;;;;;16.55;10.40;;;;;;;-4.22;73.94;96952.06;1808432;79;22023;-77
2021/01/11 02:04:52;;;;;;;16.45;9.90;;;;;;;-4.28;73.90;96948.92;1781557;79;21231;-77
2021/01/11 02:07:41;;;;;;;14.90;9.95;;;;;;;-4.30;73.92;96952.44;1805354;78;21083;-77
2021/01/11 02:10:48;;;;;;;16.57;10.72;;;;;;;-4.32;73.95;96951.25;1804308;79;21209;-77
2021/01/11 02:13:28;;;;;;;15.45;9.90;;;;;;;-4.33;73.87;96942.00;1805551;79;22042;-77
2021/01/11 02:16:09;;;;;;;15.98;10.03;;;;;;;-4.37;73.83;96943.50;1781062;78;21475;-76
2021/01/11 02:19:00;;;;;;;16.62;10.32;;;;;;;-4.38;73.90;96946.94;1810961;78;21395;-76
2021/01/11 02:21:35;;;;;;;12.85;9.50;;;;;;;-4.38;73.89;96949.03;1789279;78;21105;-76
2021/01/11 02:24:18;;;;;;;13.10;9.43;;;;;;;-4.42;73.92;96944.98;1813034;78;21114;-76
2021/01/11 02:27:20;;;;;;;14.47;9.35;;;;;;;-4.47;73.99;96949.92;1801250;78;21583;-76
2021/01/11 02:30:13;;;;;;;11.03;7.87;;;;;;;-4.49;74.08;96948.73;1803269;78;21108;-76
2021/01/11 02:33:01;;;;;;;11.00;8.48;;;;;;;-4.50;74.16;96948.80;1807630;78;21110;-76
2021/01/11 02:35:28;;;;;;;13.70;8.63;;;;;;;-4.52;74.23;96945.08;1802668;78;21117;-76
2021/01/11 02:37:54;;;;;;;10.68;7.67;;;;;;;-4.52;74.18;96948.89;1806093;79;21124;-76
2021/01/11 02:40:20;;;;;;;13.50;8.45;;;;;;;-4.53;74.17;96943.45;1749844;79;21118;-76
2021/01/11 02:42:46;;;;;;;11.55;9.30;;;;;;;-4.50;74.16;96936.95;1805977;79;21118;-76
2021/01/11 02:45:13;;;;;;;12.95;9.20;;;;;;;-4.46;74.06;96942.68;1809782;78;21480;-76
2021/01/11 02:48:03;;;;;;;15.08;9.30;;;;;;;-4.49;73.97;96938.58;1807303;78;21121;-76
2021/01/11 02:50:29;;;;;;;14.45;9.33;;;;;;;-4.49;73.97;96937.77;1803832;79;21101;-76
2021/01/11 02:53:06;;;;;;;14.78;9.85;;;;;;;-4.45;73.94;96936.70;1806858;79;21213;-76
2021/01/11 02:55:50;;;;;;;13.32;9.05;;;;;;;-4.42;73.81;96935.28;1804688;79;21241;-76
2021/01/11 02:58:55;;;;;;;16.70;9.35;;;;;;;-4.40;73.71;96938.11;1798114;78;21101;-76
2021/01/11 03:01:21;;;;;;;14.75;9.18;;;;;;;-4.43;73.67;96929.84;1794249;78;21074;-76
2021/01/11 03:03:48;;;;;;;13.75;10.53;;;;;;;-4.45;73.62;96921.48;1813003;78;21253;-76
2021/01/11 03:06:14;;;;;;;12.98;9.08;;;;;;;-4.49;73.68;96922.09;1816356;78;21089;-76
2021/01/11 03:08:41;;;;;;;17.20;10.18;;;;;;;-4.50;73.69;96926.80;1812523;78;21339;-76
2021/01/11 03:11:08;;;;;;;14.87;10.40;;;;;;;-4.51;73.84;96917.55;1812839;78;21103;-76
2021/01/11 03:13:34;;;;;;;16.25;10.50;;;;;;;-4.48;73.97;96929.26;1808154;78;21104;-76
2021/01/11 03:16:00;;;;;;;16.20;11.22;;;;;;;-4.46;73.94;96924.48;1814755;78;21335;-76
2021/01/11 03:18:26;;;;;;;18.35;12.30;;;;;;;-4.45;73.91;96923.58;1815070;78;21099;-76
2021/01/11 03:20:52;;;;;;;16.67;11.63;;;;;;;-4.51;73.81;96915.02;1799915;79;21144;-76
2021/01/11 03:23:18;;;;;;;16.73;11.00;;;;;;;-4.47;73.77;96923.28;1808473;79;21232;-77
2021/01/11 03:25:44;;;;;;;15.05;10.38;;;;;;;-4.47;73.83;96918.22;1804406;79;21090;-76
2021/01/11 03:28:11;;;;;;;16.10;10.28;;;;;;;-4.47;73.78;96925.38;1807485;79;21371;-76
2021/01/11 03:30:37;;;;;;;16.93;11.25;;;;;;;-4.47;73.83;96921.57;1798082;78;21801;-76
2021/01/11 03:33:04;;;;;;;17.48;11.20;;;;;;;-4.50;73.68;96921.73;1808950;79;21110;-76
2021/01/11 03:35:30;;;;;;;17.60;11.18;;;;;;;-4.54;73.71;96922.78;1810103;79;21095;-76
2021/01/11 03:37:56;;;;;;;16.12;11.57;;;;;;;-4.58;73.68;96926.34;1800588;79;21098;-76
2021/01/11 03:40:22;;;;;;;17.12;10.53;;;;;;;-4.59;73.81;96921.72;1801223;79;21087;-76
2021/01/11 03:42:48;;;;;;;15.68;11.53;;;;;;;-4.58;73.87;96927.61;1806427;79;21244;-77
2021/01/11 03:45:14;;;;;;;18.98;11.68;;;;;;;-4.56;73.87;96922.86;1803360;79;21317;-76
2021/01/11 03:47:40;;;;;;;14.80;11.18;;;;;;;-4.57;73.82;96926.72;1809825;79;21208;-76
2021/01/11 03:50:08;;;;;;;16.95;11.78;;;;;;;-4.58;73.79;96920.00;1805996;78;21117;-76
2021/01/11 03:52:36;;;;;;;19.25;11.95;;;;;;;-4.59;73.87;96918.36;1813612;78;21308;-76
2021/01/11 03:55:04;;;;;;;20.75;12.63;;;;;;;-4.62;73.78;96914.72;1810318;78;21969;-76
2021/01/11 03:57:31;;;;;;;18.75;11.85;;;;;;;-4.65;73.77;96915.70;1812277;78;21279;-76
2021/01/11 03:59:58;;;;;;;18.55;11.75;;;;;;;-4.66;73.79;96914.50;1811842;78;21099;-76
2021/01/11 04:02:24;;;;;;;17.00;11.15;;;;;;;-4.67;73.77;96922.56;1813897;78;21094;-76
2021/01/11 04:04:50;;;;;;;20.37;12.05;;;;;;;-4.68;73.71;96919.66;1809366;78;21086;-76
2021/01/11 04:07:16;;;;;;;17.20;11.75;;;;;;;-4.69;73.72;96915.93;1817203;78;21101;-76
2021/01/11 04:09:42;;;;;;;15.58;10.65;;;;;;;-4.70;73.77;96916.83;1807371;78;21212;-76
2021/01/11 04:12:09;;;;;;;14.30;9.70;;;;;;;-4.70;73.81;96915.11;1813775;78;21355;-76
2021/01/11 04:14:35;;;;;;;14.45;10.72;;;;;;;-4.69;73.94;96915.93;1808919;78;21055;-76
2021/01/11 04:17:01;;;;;;;17.45;10.40;;;;;;;-4.65;74.10;96919.50;1815209;78;21433;-76
2021/01/11 04:19:27;;;;;;;16.48;11.33;;;;;;;-4.61;74.14;96918.45;1809602;78;21323;-76
2021/01/11 04:21:53;;;;;;;16.15;11.20;;;;;;;-4.58;74.09;96921.27;1813501;78;21062;-76
2021/01/11 04:24:19;;;;;;;17.37;10.70;;;;;;;;;;1807583;78;21083;-76
2021/01/11 04:26:45;;;;;;;17.42;11.08;;;;;;;-4.58;74.01;96918.28;1814081;78;21069;-76
2021/01/11 04:29:12;;;;;;;16.02;9.88;;;;;;;-4.58;74.06;96917.47;1810714;78;21317;-76
2021/01/11 04:31:38;;;;;;;12.05;8.88;;;;;;;-4.62;74.07;96909.20;1815037;78;21251;-76
2021/01/11 04:34:04;;;;;;;14.30;8.40;;;;;;;-4.65;74.08;96917.41;1808487;78;21227;-76
2021/01/11 04:36:34;;;;;;;10.75;8.35;;;;;;;-4.67;74.12;96914.95;1813795;79;22005;-77
2021/01/11 04:39:00;;;;;;;11.53;7.62;;;;;;;-4.71;73.98;96912.20;1772397;80;21103;-76
2021/01/11 04:41:34;;;;;;;11.33;8.83;;;;;;;-4.73;74.05;96916.50;1775119;79;21106;-76
2021/01/11 04:44:02;;;;;;;9.95;7.40;;;;;;;-4.72;74.12;96914.79;1777719;79;21761;-76
2021/01/11 04:46:29;;;;;;;9.75;7.80;;;;;;;-4.74;74.16;96912.78;1793362;78;21109;-76
2021/01/11 04:48:55;;;;;;;11.57;8.03;;;;;;;-4.74;74.16;96906.44;1769183;80;21118;-76
2021/01/11 04:51:21;;;;;;;9.20;6.78;;;;;;;-4.77;74.20;96918.83;1757918;80;21115;-76
2021/01/11 04:53:47;;;;;;;10.75;7.92;;;;;;;-4.77;74.26;96912.48;1756544;80;21959;-76
2021/01/11 04:56:13;;;;;;;13.08;8.05;;;;;;;-4.80;74.24;96911.38;1790696;78;21097;-76
2021/01/11 04:58:59;;;;;;;10.53;8.35;;;;;;;-4.82;74.27;96915.70;1808658;78;22195;-76
2021/01/11 05:01:28;;;;;;;14.15;10.08;;;;;;;-4.84;74.34;96911.98;1808714;78;21105;-76
2021/01/11 05:04:01;;;;;;;13.55;8.30;;;;;;;-4.85;74.37;96906.98;1809667;78;21145;-76
2021/01/11 05:06:27;;;;;;;11.35;8.95;;;;;;;-4.87;74.39;96910.86;1814626;78;21211;-76
2021/01/11 05:09:05;;;;;;;12.65;8.20;;;;;;;-4.88;74.39;96911.76;1793603;78;21116;-76
2021/01/11 05:11:33;;;;;;;12.28;9.58;;;;;;;-4.88;74.42;96910.49;1770870;79;21099;-76
2021/01/11 05:13:59;;;;;;;10.70;9.03;;;;;;;-4.87;74.45;96907.06;1763394;80;21288;-76
2021/01/11 05:16:25;;;;;;;12.25;8.98;;;;;;;-4.87;74.45;96904.53;1766297;80;21115;-76
2021/01/11 05:18:57;;;;;;;14.13;9.10;;;;;;;-4.85;74.50;96905.72;1793365;78;21253;-76
2021/01/11 05:21:40;;;;;;;15.98;10.05;;;;;;;-4.85;74.54;96907.80;1785112;78;21428;-77
2021/01/11 05:24:35;;;;;;;13.65;10.28;;;;;;;-4.85;74.56;96903.18;1764343;79;21095;-76
2021/01/11 05:27:08;;;;;;;16.23;9.80;;;;;;;-4.86;74.55;96902.81;1761106;80;21131;-77
2021/01/11 05:29:35;;;;;;;13.72;9.75;;;;;;;-4.91;74.57;96901.75;1750007;80;21149;-76
2021/01/11 05:32:08;;;;;;;15.68;10.48;;;;;;;-4.89;74.66;96906.29;1812477;78;21320;-76
2021/01/11 05:34:52;;;;;;;17.48;11.15;;;;;;;-4.88;74.68;96899.53;1815806;78;21090;-76
2021/01/11 05:37:38;;;;;;;19.05;9.83;;;;;;;-4.88;74.66;96904.60;1809603;78;21093;-76
2021/01/11 05:40:15;;;;;;;15.55;10.58;;;;;;;-4.88;74.62;96902.89;1811420;78;21074;-76
2021/01/11 05:42:42;;;;;;;14.90;10.20;;;;;;;-4.87;74.68;96905.80;1807365;78;21246;-76
2021/01/11 05:45:21;;;;;;;13.90;9.83;;;;;;;-4.85;74.72;96909.52;1801822;78;21327;-76
2021/01/11 05:48:05;;;;;;;15.05;10.55;;;;;;;-4.82;74.77;96913.17;1786416;78;21107;-76
2021/01/11 05:50:46;;;;;;;16.32;10.78;;;;;;;-4.79;74.73;96903.31;1817553;78;21489;-76
2021/01/11 05:53:25;;;;;;;14.33;10.05;;;;;;;-4.76;74.71;96905.25;1817695;78;21086;-76
2021/01/11 05:55:53;;;;;;;15.43;10.40;;;;;;;-4.70;74.67;96909.22;1817655;78;21128;-76
2021/01/11 05:58:20;;;;;;;14.87;10.38;;;;;;;-4.67;74.59;96906.53;1809870;78;21471;-75
2021/01/11 06:00:47;;;;;;;14.55;10.18;;;;;;;-4.62;74.50;96913.00;1816169;78;21109;-75
2021/01/11 06:03:13;;;;;;;14.47;10.18;;;;;;;-4.59;74.39;96915.38;1818504;78;21319;-76
2021/01/11 06:05:43;;;;;;;15.83;9.73;;;;;;;-4.54;74.34;96917.71;1811289;78;21114;-76
2021/01/11 06:08:12;;;;;;;14.38;9.18;;;;;;;-4.55;74.20;96924.50;1820588;77;21311;-76
2021/01/11 06:10:39;;;;;;;12.75;9.15;;;;;;;-4.56;74.16;96928.35;1814424;78;21105;-76
2021/01/11 06:13:09;;;;;;;13.03;9.15;;;;;;;-4.59;74.13;96929.78;1820457;78;21101;-76
2021/01/11 06:15:35;;;;;;;17.85;10.35;;;;;;;-4.62;74.16;96927.40;1794247;78;21224;-75
2021/01/11 06:18:02;;;;;;;12.98;9.83;;;;;;;-4.64;74.19;96936.35;1804870;78;21109;-76
2021/01/11 06:20:30;;;;;;;12.90;8.95;;;;;;;-4.67;74.23;96936.50;1800494;79;21116;-76
2021/01/11 06:23:00;;;;;;;15.15;9.43;;;;;;;-4.67;74.23;96940.76;1794517;78;21315;-76
2021/01/11 06:25:32;;;;;;;15.40;10.03;;;;;;;-4.69;74.28;96936.22;1792144;78;21073;-76
2021/01/11 06:28:03;;;;;;;12.13;10.10;;;;;;;-4.72;74.31;96934.66;1785922;78;21316;-77
2021/01/11 06:30:38;;;;;;;15.15;9.95;;;;;;;-4.71;74.34;96940.55;1745635;80;21086;-77
2021/01/11 06:33:17;;;;;;;14.87;9.38;;;;;;;-4.70;74.46;96930.77;1742572;80;21137;-77
2021/01/11 06:35:48;;;;;;;18.15;9.78;;;;;;;-4.68;74.50;96939.12;1741048;80;21130;-77
2021/01/11 06:38:22;;;;;;;11.18;8.68;;;;;;;-4.67;74.53;96934.42;1785146;79;21108;-78
2021/01/11 06:41:09;;;;;;;18.80;10.78;;;;;;;-4.67;74.56;96941.58;1768775;79;21115;-77
2021/01/11 06:43:44;;;;;;;15.08;9.38;;;;;;;-4.67;74.59;96941.58;1751567;79;21114;-76
2021/01/11 06:46:30;;;;;;;13.05;9.10;;;;;;;-4.68;74.53;96937.41;1728486;80;21131;-76
2021/01/11 06:49:01;;;;;;;13.65;9.30;;;;;;;-4.66;74.52;96934.79;1763022;79;21130;-77
2021/01/11 06:51:42;;;;;;;17.65;10.95;;;;;;;-4.65;74.53;96937.25;1739356;80;21107;-77
2021/01/11 06:54:15;;;;;;;14.73;10.98;;;;;;;-4.62;74.47;96930.75;1760602;80;21321;-77
2021/01/11 06:56:42;;;;;;;14.30;9.78;;;;;;;-4.61;74.45;96928.59;1771399;80;21130;-76
2021/01/11 06:59:18;;;;;;;17.67;10.38;;;;;;;-4.62;74.42;96934.55;1752589;79;21130;-77
2021/01/11 07:01:46;;;;;;;15.00;11.15;;;;;;;-4.60;74.51;96934.48;1764609;79;21237;-77
2021/01/11 07:04:34;;;;;;;15.93;9.83;;;;;;;-4.56;74.60;96934.69;1760844;79;21128;-77
2021/01/11 07:07:00;;;;;;;12.65;9.00;;;;;;;-4.52;74.64;96937.92;1748256;81;21130;-77
2021/01/11 07:09:26;;;;;;;11.93;8.55;;;;;;;-4.51;74.63;96939.56;1748267;80;21110;-77
2021/01/11 07:11:53;;;;;;;12.33;9.70;;;;;;;-4.50;74.59;96945.00;1763251;80;21507;-77
2021/01/11 07:14:22;;;;;;;13.88;9.43;;;;;;;-4.50;74.62;96942.02;1761876;79;21317;-77
2021/01/11 07:16:53;;;;;;;11.10;8.40;;;;;;;-4.48;74.63;96941.48;1766192;80;21139;-77
2021/01/11 07:19:20;;;;;;;13.43;9.95;;;;;;;-4.45;74.61;96945.14;1769944;80;21224;-77
2021/01/11 07:21:50;;;;;;;12.07;8.65;;;;;;;-4.43;74.64;96941.25;1748978;80;21412;-77
2021/01/11 07:24:16;;;;;;;11.25;8.28;;;;;;;-4.40;74.61;96944.45;1758700;80;21095;-77
2021/01/11 07:26:42;;;;;;;13.08;8.53;;;;;;;-4.38;74.55;96946.49;1795561;78;21388;-77
2021/01/11 07:29:11;;;;;;;13.22;9.60;;;;;;;-4.35;74.60;96952.67;1798979;78;21420;-77
2021/01/11 07:31:43;;;;;;;12.70;9.33;;;;;;;-4.32;74.56;96949.16;1793221;78;21414;-76
2021/01/11 07:34:13;;;;;;;14.55;9.85;;;;;;;-4.29;74.58;96952.80;1805333;78;21382;-77
2021/01/11 07:36:45;;;;;;;13.00;10.23;;;;;;;-4.25;74.45;96948.77;1798502;78;21247;-77
2021/01/11 07:39:26;;;;;;;14.95;9.38;;;;;;;-4.18;74.45;96945.94;1792674;78;21105;-77
2021/01/11 07:42:02;;;;;;;13.15;9.38;;;;;;;-4.14;74.44;96946.14;1789337;78;21073;-77
2021/01/11 07:47:08;;;;;;;14.07;8.98;;;;;;;-4.04;74.28;96954.49;1762337;79;22334;-77
2021/01/11 07:49:39;;;;;;;13.53;9.88;;;;;;;-4.00;74.31;96947.53;1751816;80;21228;-77
2021/01/11 07:52:24;;;;;;;14.13;9.93;;;;;;;-3.94;74.27;96945.48;1735296;82;21142;-78
2021/01/11 07:55:02;;;;;;;13.10;10.05;;;;;;;-3.87;74.24;96942.20;1738244;80;21122;-78
2021/01/11 07:57:30;;;;;;;10.88;8.28;;;;;;;-3.78;74.15;96948.50;1731694;80;21138;-77
2021/01/11 08:00:12;;;;;;;12.60;9.23;;;;;;;-3.73;74.02;96947.38;1685366;83;21144;-78
2021/01/11 08:02:38;;;;;;;14.00;10.03;;;;;;;-3.70;73.97;96946.39;1704638;82;22217;-79
2021/01/11 08:05:08;;;;;;;13.72;9.48;;;;;;;-3.67;73.99;96947.50;1674459;83;21200;-79
2021/01/11 08:07:35;;;;;;;15.80;9.10;;;;;;;-3.63;73.92;96945.16;1687991;82;21081;-80
2021/01/11 08:10:01;;;;;;;13.93;8.60;;;;;;;-3.59;73.95;96949.17;1692508;82;21114;-79
2021/01/11 08:12:28;;;;;;;12.47;9.08;;;;;;;-3.51;73.97;96949.60;1699945;82;21074;-79
2021/01/11 08:15:04;;;;;;;13.60;9.50;;;;;;;-3.42;73.90;96957.16;1701674;82;21158;-80
2021/01/11 08:17:31;;;;;;;12.80;9.73;;;;;;;-3.39;73.71;96956.58;1690429;82;21398;-79
2021/01/11 08:19:59;;;;;;;14.60;9.95;;;;;;;-3.34;73.71;96958.86;1695028;84;21138;-80
2021/01/11 08:22:27;;;;;;;13.70;9.48;;;;;;;-3.25;73.68;96953.75;1695348;84;21133;-80
2021/01/11 08:24:57;;;;;;;15.85;10.40;;;;;;;-3.15;73.53;96956.14;1690855;82;21455;-79
2021/01/11 08:27:36;;;;;;;14.35;9.40;;;;;;;-3.11;73.39;96956.33;1697908;82;21236;-79
2021/01/11 08:30:11;;;;;;;16.40;11.75;;;;;;;-3.05;73.21;96963.64;1704002;82;21125;-79
2021/01/11 08:32:38;;;;;;;18.57;11.05;;;;;;;-3.15;73.00;96960.77;1701758;82;21264;-79
2021/01/11 08:35:12;;;;;;;18.05;10.95;;;;;;;-3.13;73.06;96961.95;1699818;82;21404;-80
2021/01/11 08:37:38;;;;;;;16.48;9.80;;;;;;;-3.09;73.10;96960.91;1703948;82;21134;-80
2021/01/11 08:40:08;;;;;;;15.35;10.00;;;;;;;-3.04;73.11;96966.10;1674322;84;21149;-80
2021/01/11 08:42:36;;;;;;;17.40;10.65;;;;;;;-2.97;73.17;96963.21;1698412;82;21125;-78
2021/01/11 08:45:37;;;;;;;16.67;10.28;;;;;;;-2.89;73.22;96965.71;1691938;82;21197;-79
2021/01/11 08:48:14;;;;;;;15.32;10.28;;;;;;;-2.79;73.28;96973.63;1671485;85;21134;-79
2021/01/11 08:50:44;;;;;;;11.40;8.43;;;;;;;-2.62;73.26;96976.05;1666609;85;21268;-79
2021/01/11 08:53:26;;;;;;;16.02;9.98;;;;;;;-2.43;73.28;96984.77;1662023;83;22307;-78
2021/01/11 08:56:07;;;;;;;21.55;13.40;;;;;;;-2.27;73.25;96977.08;1663349;83;21131;-78
2021/01/11 08:58:47;;;;;;;48.70;23.87;;;;;;;-2.12;73.24;96981.25;1663544;85;21135;-77
2021/01/11 09:01:19;;;;;;;61.90;30.17;;;;;;;-1.97;73.17;96972.72;1668332;83;21272;-78
2021/01/11 09:03:49;;;;;;;111.88;50.85;;;;;;;-1.78;73.07;96972.94;1663948;83;21569;-78
2021/01/11 09:06:45;;;;;;;125.90;59.88;;;;;;;-1.66;72.89;96976.81;1666149;83;21266;-78
2021/01/11 09:12:04;;;;;;;119.82;49.60;;;;;;;-1.37;72.34;96966.59;1797571;77;23205;-80
2021/01/11 09:14:33;;;;;;;108.32;49.53;;;;;;;-1.29;71.96;96976.70;1807682;78;21294;-78
2021/01/11 09:17:04;;;;;;;120.37;53.75;;;;;;;-1.15;71.69;96983.47;1788365;79;21215;-79
2021/01/11 09:19:31;;;;;;;125.30;56.65;;;;;;;-1.00;71.48;96976.61;1763507;81;21162;-79
2021/01/11 09:22:16;;;;;;;98.12;47.00;;;;;;;-0.93;70.93;96980.42;1764285;81;21117;-79
2021/01/11 09:24:46;;;;;;;92.20;46.95;;;;;;;-0.88;70.65;96982.22;1763834;81;21188;-80
2021/01/11 09:27:12;;;;;;;82.00;41.50;;;;;;;-0.82;70.63;96981.82;1763791;81;21236;-79
2021/01/11 09:29:39;;;;;;;90.32;51.00;;;;;;;-0.76;70.38;96980.64;1762465;81;21905;-80
2021/01/11 09:32:05;;;;;;;85.28;45.38;;;;;;;-0.72;70.01;96979.52;1761282;81;21264;-80
2021/01/11 09:34:32;;;;;;;82.02;44.63;;;;;;;-0.76;69.84;96972.52;1762158;81;21435;-79
2021/01/11 09:36:58;;;;;;;81.25;43.83;;;;;;;-0.82;69.72;96972.08;1763119;81;21134;-79
2021/01/11 09:39:24;;;;;;;82.90;43.00;;;;;;;-0.87;69.85;96968.55;1762112;81;21328;-79
2021/01/11 09:41:53;;;;;;;74.60;41.58;;;;;;;-0.84;70.00;96965.80;1763375;81;21228;-80
2021/01/11 09:44:20;;;;;;;77.20;42.58;;;;;;;-0.81;70.03;96966.09;1763773;81;21120;-79
2021/01/11 09:46:51;;;;;;;87.27;46.83;;;;;;;-0.76;69.88;96967.87;1763835;81;21177;-79
2021/01/11 09:49:18;;;;;;;71.12;38.58;;;;;;;-0.66;70.00;96959.97;1765159;81;21412;-78
2021/01/11 09:51:44;;;;;;;59.40;30.95;;;;;;;-0.64;69.61;96962.00;1764483;81;21117;-79
2021/01/11 09:54:10;;;;;;;74.03;38.63;;;;;;;-0.75;69.67;96960.13;1763675;81;21486;-78
2021/01/11 09:56:37;;;;;;;47.23;26.37;;;;;;;-0.81;69.61;96957.97;1764477;81;21085;-79
2021/01/11 09:59:05;;;;;;;64.80;36.05;;;;;;;-0.83;69.68;96957.22;1765199;81;21138;-79
2021/01/11 10:01:39;;;;;;;70.32;38.53;;;;;;;-0.84;69.66;96953.04;1765832;81;21252;-79
2021/01/11 10:04:06;;;;;;;54.73;32.33;;;;;;;-0.87;69.55;96953.23;1763925;81;21272;-79
2021/01/11 10:06:43;;;;;;;54.18;31.77;;;;;;;-0.81;69.81;96954.14;1763980;81;21122;-79
2021/01/11 10:09:11;;;;;;;51.00;30.35;;;;;;;-0.79;69.68;96952.77;1763675;81;21265;-79
2021/01/11 10:11:39;;;;;;;58.52;33.88;;;;;;;-0.81;69.79;96955.42;1737586;81;21139;-79
2021/01/11 10:14:06;;;;;;;59.95;34.70;;;;;;;-0.80;69.68;96953.23;1729041;82;21120;-79
2021/01/11 10:16:33;;;;;;;39.38;23.42;;;;;;;-0.76;69.67;96948.74;1730506;82;21355;-79
2021/01/11 10:18:59;;;;;;;31.95;18.62;;;;;;;-0.72;69.93;96947.16;1717170;82;21158;-80
2021/01/11 10:21:26;;;;;;;30.97;19.75;;;;;;;-0.65;70.09;96947.61;1750154;81;21158;-80
2021/01/11 10:23:52;;;;;;;30.35;18.02;;;;;;;-0.57;70.16;96948.38;1746003;81;21443;-80
2021/01/11 10:26:21;;;;;;;49.03;28.40;;;;;;;-0.45;70.10;96943.30;1715866;81;21098;-79
2021/01/11 10:28:50;;;;;;;42.30;25.52;;;;;;;-0.38;69.45;96947.53;1743157;81;21118;-80
2021/01/11 10:31:17;;;;;;;34.88;19.80;;;;;;;-0.30;69.34;96942.75;1743491;81;22201;-80
2021/01/11 10:33:47;;;;;;;33.70;21.35;;;;;;;-0.24;69.54;96936.41;1742099;81;22022;-80
2021/01/11 10:36:14;;;;;;;23.62;14.87;;;;;;;-0.20;69.46;96932.73;1743385;81;21138;-80
2021/01/11 10:38:42;;;;;;;32.50;17.12;;;;;;;-0.22;69.47;96926.45;1747242;81;21412;-80
2021/01/11 10:41:09;;;;;;;31.87;19.02;;;;;;;-0.30;69.10;96927.43;1749395;81;21522;-80
2021/01/11 10:43:35;;;;;;;28.77;17.95;;;;;;;-0.36;69.14;96924.80;1745859;81;21149;-79
2021/01/11 10:46:02;;;;;;;52.17;30.02;;;;;;;-0.31;69.44;96914.31;1720648;82;21540;-83
2021/01/11 10:48:28;;;;;;;32.00;17.90;;;;;;;-0.31;68.96;96918.95;1721818;83;21373;-81
2021/01/11 10:50:54;;;;;;;30.55;19.32;;;;;;;-0.27;69.35;96911.91;1720361;83;21134;-81
2021/01/11 10:53:20;;;;;;;56.42;34.45;;;;;;;-0.19;69.58;96915.20;1720757;83;21758;-79
2021/01/11 10:55:47;;;;;;;38.42;23.10;;;;;;;-0.09;68.99;96913.22;1751479;81;21126;-81
2021/01/11 10:58:13;;;;;;;66.02;39.08;;;;;;;0.01;69.55;96908.32;1750429;81;21133;-79
2021/01/11 11:00:39;;;;;;;67.78;39.23;;;;;;;0.10;68.70;96911.98;1718078;83;21160;-82
2021/01/11 11:03:07;;;;;;;52.48;30.17;;;;;;;0.13;68.52;96902.81;1749143;81;21146;-80
2021/01/11 11:05:33;;;;;;;47.08;27.30;;;;;;;0.17;68.84;96899.97;1744573;81;21133;-80
2021/01/11 11:08:00;;;;;;;50.92;29.25;;;;;;;0.18;68.78;96903.34;1741615;81;21127;-80
2021/01/11 11:10:26;;;;;;;47.67;26.48;;;;;;;0.16;68.82;96895.78;1743156;80;21174;-79
2021/01/11 11:12:52;;;;;;;43.87;25.48;;;;;;;0.22;69.22;96894.53;1747302;81;21136;-79
2021/01/11 11:15:19;;;;;;;51.02;30.23;;;;;;;0.28;69.16;96890.27;1694148;83;22055;-80
2021/01/11 11:17:45;;;;;;;46.60;28.98;;;;;;;0.30;68.76;96884.59;1719950;83;21154;-80
2021/01/11 11:20:13;;;;;;;58.35;36.05;;;;;;;0.30;68.59;96887.95;1718584;83;21141;-80
2021/01/11 11:22:39;;;;;;;56.23;31.62;;;;;;;0.26;67.36;96880.61;1721311;83;21373;-80
2021/01/11 11:25:06;;;;;;;46.98;26.60;;;;;;;0.28;67.70;96882.60;1742670;81;21407;-79
2021/01/11 11:27:36;;;;;;;52.80;29.02;;;;;;;0.30;67.58;96880.75;1746212;81;21142;-79
2021/01/11 11:30:07;;;;;;;51.77;29.12;;;;;;;0.28;67.68;96878.77;1739981;81;21292;-79
2021/01/11 11:32:34;;;;;;;37.88;21.55;;;;;;;0.30;67.93;96865.41;1744630;81;21086;-79
2021/01/11 11:35:24;;;;;;;43.42;24.95;;;;;;;0.27;67.30;96869.47;1712836;82;21478;-78
2021/01/11 11:37:54;;;;;;;46.95;27.90;;;;;;;0.25;66.98;96866.20;1693557;83;21169;-78
2021/01/11 11:40:21;;;;;;;49.70;27.10;;;;;;;0.26;67.19;96862.27;1679932;84;21247;-80
2021/01/11 11:42:47;;;;;;;36.88;23.00;;;;;;;0.28;66.80;96860.87;1693760;83;22709;-78